createdAt,value
2022-12-25T00:01:07.506Z,39.00
2022-12-25T00:03:48.732Z,38.75
2022-12-25T00:06:17.693Z,36.25
2022-12-25T00:08:46.757Z,37.25
2022-12-25T00:11:17.186Z,41.00
2022-12-25T00:13:48.364Z,39.00
2022-12-25T00:16:19.218Z,34.25
2022-12-25T00:18:48.503Z,38.00
2022-12-25T00:21:17.097Z,37.25
2022-12-25T00:23:46.033Z,37.00
2022-12-25T00:26:17.649Z,27.00
2022-12-25T00:28:47.895Z,39.00
2022-12-25T00:31:18.733Z,39.25
2022-12-25T00:33:49.435Z,37.00
2022-12-25T00:36:21.176Z,34.50
2022-12-25T00:38:50.046Z,36.50
2022-12-25T00:41:42.077Z,36.25
2022-12-25T00:44:14.713Z,34.75
2022-12-25T00:46:43.791Z,37.25
2022-12-25T00:49:13.555Z,35.25
2022-12-25T00:51:42.030Z,36.25
2022-12-25T00:54:10.882Z,34.75
2022-12-25T00:56:40.076Z,36.00
2022-12-25T00:59:08.920Z,34.25
2022-12-25T01:01:40.230Z,31.50
2022-12-25T01:04:09.495Z,34.50
2022-12-25T01:06:38.171Z,34.25
2022-12-25T01:09:24.193Z,36.50
2022-12-25T01:11:52.601Z,33.25
2022-12-25T01:14:21.380Z,34.50
2022-12-25T01:16:51.333Z,36.25
2022-12-25T01:19:20.088Z,35.25
2022-12-25T01:21:48.549Z,36.00
2022-12-25T01:24:17.294Z,36.25
2022-12-25T01:26:45.705Z,38.25
2022-12-25T01:29:14.537Z,37.50
2022-12-25T01:31:43.101Z,35.50
2022-12-25T01:34:13.226Z,38.25
2022-12-25T01:36:41.686Z,36.50
2022-12-25T01:39:10.438Z,35.75
2022-12-25T01:41:39.052Z,38.00
2022-12-25T01:44:29.017Z,34.00
2022-12-25T01:46:57.516Z,35.75
2022-12-25T01:49:28.035Z,33.75
2022-12-25T01:52:00.427Z,34.75
2022-12-25T01:54:34.487Z,36.75
2022-12-25T01:57:05.462Z,36.25
2022-12-25T01:59:34.621Z,33.00
2022-12-25T02:02:05.185Z,35.75
2022-12-25T02:04:43.274Z,33.00
2022-12-25T02:07:16.137Z,31.75
2022-12-25T02:09:47.319Z,34.00
2022-12-25T02:12:19.826Z,33.50
2022-12-25T02:14:49.926Z,35.25
2022-12-25T02:17:26.964Z,33.00
2022-12-25T02:20:31.710Z,33.00
2022-12-25T02:23:14.702Z,33.00
2022-12-25T02:26:03.404Z,34.00
2022-12-25T02:28:45.406Z,32.50
2022-12-25T02:31:18.949Z,35.75
2022-12-25T02:34:06.693Z,32.00
2022-12-25T02:36:42.094Z,34.00
2022-12-25T02:39:37.818Z,33.75
2022-12-25T02:42:12.569Z,35.25
2022-12-25T02:45:03.263Z,33.00
2022-12-25T02:47:51.539Z,34.25
2022-12-25T02:50:40.114Z,33.50
2022-12-25T02:53:28.800Z,33.00
2022-12-25T02:56:16.481Z,33.75
2022-12-25T02:59:04.817Z,33.00
2022-12-25T03:01:58.701Z,33.75
2022-12-25T03:04:48.143Z,32.75
2022-12-25T03:07:20.035Z,31.00
2022-12-25T03:10:10.029Z,31.25
2022-12-25T03:12:47.406Z,33.25
2022-12-25T03:15:36.285Z,32.25
2022-12-25T03:18:10.227Z,32.75
2022-12-25T03:20:56.990Z,33.00
2022-12-25T03:23:47.845Z,32.75
2022-12-25T03:26:34.866Z,34.25
2022-12-25T03:29:03.463Z,32.00
2022-12-25T03:31:39.465Z,33.00
2022-12-25T03:35:03.275Z,33.25
2022-12-25T03:38:01.305Z,32.50
2022-12-25T03:41:07.000Z,20.25
2022-12-25T03:43:59.795Z,32.00
2022-12-25T03:46:51.995Z,33.00
2022-12-25T03:49:45.120Z,30.25
2022-12-25T03:52:35.986Z,30.25
2022-12-25T03:55:26.993Z,33.00
2022-12-25T03:58:24.459Z,32.00
2022-12-25T04:01:11.083Z,33.00
2022-12-25T04:03:56.877Z,31.00
2022-12-25T04:06:44.480Z,32.00
2022-12-25T04:09:30.511Z,31.00
2022-12-25T04:12:16.790Z,31.75
2022-12-25T04:15:02.716Z,31.25
2022-12-25T04:17:49.176Z,31.75
2022-12-25T04:20:35.169Z,30.25
2022-12-25T04:23:22.699Z,31.75
2022-12-25T04:26:08.642Z,30.75
2022-12-25T04:28:54.859Z,30.50
2022-12-25T04:31:40.619Z,31.75
2022-12-25T04:34:26.561Z,30.25
2022-12-25T04:36:55.001Z,30.75
2022-12-25T04:39:25.308Z,30.50
2022-12-25T04:41:53.722Z,32.00
2022-12-25T04:44:22.426Z,32.00
2022-12-25T04:46:51.062Z,30.75
2022-12-25T04:49:19.940Z,31.75
2022-12-25T04:51:48.337Z,32.25
2022-12-25T04:54:17.297Z,33.00
2022-12-25T04:56:47.089Z,31.25
2022-12-25T04:59:15.898Z,31.50
2022-12-25T05:01:44.559Z,31.75
2022-12-25T05:04:13.419Z,23.00
2022-12-25T05:06:42.047Z,32.00
2022-12-25T05:09:11.194Z,31.25
2022-12-25T05:11:39.649Z,31.50
2022-12-25T05:14:09.753Z,32.75
2022-12-25T05:16:38.428Z,31.75
2022-12-25T05:19:07.295Z,30.50
2022-12-25T05:21:35.810Z,31.75
2022-12-25T05:24:04.620Z,33.00
2022-12-25T05:26:33.019Z,32.75
2022-12-25T05:29:01.823Z,32.00
2022-12-25T05:31:31.696Z,31.00
2022-12-25T05:34:00.487Z,30.50
2022-12-25T05:36:29.264Z,31.50
2022-12-25T05:38:58.009Z,32.75
2022-12-25T05:41:32.215Z,32.75
2022-12-25T05:44:03.481Z,31.75
2022-12-25T05:46:33.297Z,32.00
2022-12-25T05:49:02.066Z,33.00
2022-12-25T05:51:30.927Z,32.50
2022-12-25T05:53:59.798Z,33.00
2022-12-25T05:56:28.694Z,33.00
2022-12-25T05:58:57.871Z,33.50
2022-12-25T06:01:28.779Z,32.25
2022-12-25T06:03:59.228Z,32.00
2022-12-25T06:06:27.875Z,33.00
2022-12-25T06:08:56.695Z,31.00
2022-12-25T06:11:25.214Z,33.00
2022-12-25T06:13:54.273Z,33.25
2022-12-25T06:16:22.795Z,39.75
2022-12-25T06:18:53.650Z,44.33
2022-12-25T06:21:23.779Z,36.50
2022-12-25T06:23:52.559Z,36.25
2022-12-25T06:26:21.464Z,38.00
2022-12-25T06:28:50.204Z,33.75
2022-12-25T06:31:20.930Z,36.75
2022-12-25T06:33:50.627Z,36.75
2022-12-25T06:36:21.418Z,36.00
2022-12-25T06:38:52.281Z,33.00
2022-12-25T06:41:22.785Z,36.75
2022-12-25T06:43:53.456Z,37.00
2022-12-25T06:46:23.643Z,36.25
2022-12-25T06:48:52.598Z,36.75
2022-12-25T06:51:24.465Z,37.00
2022-12-25T06:53:55.264Z,38.75
2022-12-25T06:56:26.288Z,39.00
2022-12-25T06:58:57.240Z,37.50
2022-12-25T07:01:28.320Z,36.25
2022-12-25T07:03:59.885Z,37.50
2022-12-25T07:06:28.924Z,36.00
2022-12-25T07:08:59.157Z,32.00
2022-12-25T07:11:27.719Z,2.75
2022-12-25T07:13:56.500Z,33.00
2022-12-25T07:16:25.048Z,36.00
2022-12-25T07:18:53.814Z,37.75
2022-12-25T07:21:22.707Z,38.00
2022-12-25T07:23:51.578Z,36.50
2022-12-25T07:26:21.381Z,37.25
2022-12-25T07:28:50.144Z,37.50
2022-12-25T07:31:20.047Z,36.50
2022-12-25T07:33:49.274Z,40.75
2022-12-25T07:36:17.841Z,39.33
2022-12-25T07:38:50.439Z,42.00
2022-12-25T07:41:19.142Z,38.00
2022-12-25T07:43:52.677Z,37.00
2022-12-25T07:46:21.598Z,39.75
2022-12-25T07:48:50.656Z,38.75
2022-12-25T07:51:19.092Z,40.25
2022-12-25T07:53:47.965Z,39.25
2022-12-25T07:56:18.311Z,38.25
2022-12-25T07:58:48.454Z,40.25
2022-12-25T08:01:21.233Z,39.25
2022-12-25T08:03:51.425Z,53.00
2022-12-25T08:06:20.816Z,40.25
2022-12-25T08:08:49.794Z,33.50
2022-12-25T08:11:18.295Z,10.50
2022-12-25T08:13:47.222Z,36.50
2022-12-25T08:16:15.702Z,43.00
2022-12-25T08:18:46.120Z,40.33
2022-12-25T08:21:16.873Z,40.25
2022-12-25T08:23:48.047Z,40.25
2022-12-25T08:26:18.604Z,39.33
2022-12-25T08:28:47.808Z,37.00
2022-12-25T08:31:18.807Z,48.25
2022-12-25T08:33:50.415Z,40.00
2022-12-25T08:36:19.813Z,39.75
2022-12-25T08:38:49.242Z,44.00
2022-12-25T08:41:18.012Z,37.67
2022-12-25T08:43:47.419Z,37.25
2022-12-25T08:46:16.264Z,34.75
2022-12-25T08:48:46.343Z,35.25
2022-12-25T08:51:18.468Z,35.50
2022-12-25T08:53:49.502Z,38.00
2022-12-25T08:56:19.690Z,37.25
2022-12-25T08:58:48.471Z,38.25
2022-12-25T09:01:17.012Z,37.00
2022-12-25T09:03:45.947Z,40.50
2022-12-25T09:06:17.307Z,45.50
2022-12-25T09:08:49.634Z,34.50
2022-12-25T09:11:20.731Z,37.00
2022-12-25T09:13:50.035Z,35.25
2022-12-25T09:16:21.302Z,36.75
2022-12-25T09:18:50.653Z,37.25
2022-12-25T09:21:20.534Z,48.75
2022-12-25T09:23:49.590Z,46.00
2022-12-25T09:26:19.830Z,40.67
2022-12-25T09:28:52.302Z,40.75
2022-12-25T09:31:22.795Z,38.75
2022-12-25T09:33:52.670Z,38.00
2022-12-25T09:36:23.506Z,39.00
2022-12-25T09:38:53.173Z,36.50
2022-12-25T09:41:29.740Z,70.25
2022-12-25T09:44:05.268Z,35.25
2022-12-25T09:46:41.390Z,34.75
2022-12-25T09:49:19.867Z,33.75
2022-12-25T09:51:56.950Z,33.25
2022-12-25T09:54:37.836Z,32.00
2022-12-25T09:57:07.337Z,33.75
2022-12-25T09:59:36.453Z,34.50
2022-12-25T10:02:29.472Z,34.50
2022-12-25T10:05:21.944Z,37.25
2022-12-25T10:08:06.284Z,36.25
2022-12-25T10:10:49.842Z,26.25
2022-12-25T10:13:36.936Z,43.00
2022-12-25T10:16:19.177Z,34.00
2022-12-25T10:19:05.978Z,31.75
2022-12-25T10:21:35.039Z,31.75
2022-12-25T10:24:12.308Z,33.50
2022-12-25T10:26:41.343Z,31.00
2022-12-25T10:29:15.133Z,32.25
2022-12-25T10:31:48.201Z,33.00
2022-12-25T10:34:17.965Z,34.75
2022-12-25T10:36:47.626Z,34.25
2022-12-25T10:39:19.983Z,35.75
2022-12-25T10:42:05.734Z,36.75
2022-12-25T10:44:35.033Z,36.00
2022-12-25T10:47:05.577Z,33.00
2022-12-25T10:49:36.783Z,31.50
2022-12-25T10:52:19.717Z,32.00
2022-12-25T10:54:49.923Z,48.25
2022-12-25T10:57:21.703Z,28.00
2022-12-25T10:59:52.394Z,28.50
2022-12-25T11:02:26.322Z,27.25
2022-12-25T11:05:03.647Z,35.50
2022-12-25T11:07:34.269Z,33.00
2022-12-25T11:10:16.429Z,27.75
2022-12-25T11:12:47.518Z,25.00
2022-12-25T11:15:34.944Z,27.25
2022-12-25T11:18:04.818Z,22.20
2022-12-25T11:20:33.538Z,29.75
2022-12-25T11:23:02.375Z,27.75
2022-12-25T11:25:32.264Z,29.25
2022-12-25T11:28:03.818Z,26.00
2022-12-25T11:30:34.519Z,10.60
2022-12-25T11:33:08.033Z,19.20
2022-12-25T11:35:52.949Z,18.80
2022-12-25T11:38:21.991Z,19.40
2022-12-25T11:40:55.562Z,22.60
2022-12-25T11:43:29.111Z,23.25
2022-12-25T11:46:05.362Z,27.00
2022-12-25T11:48:40.368Z,29.50
2022-12-25T11:51:11.159Z,31.50
2022-12-25T11:53:44.639Z,37.00
2022-12-25T11:56:18.181Z,41.75
2022-12-25T11:58:50.344Z,36.00
2022-12-25T12:01:28.042Z,34.50
2022-12-25T12:03:59.190Z,33.25
2022-12-25T12:06:34.258Z,34.75
2022-12-25T12:09:18.565Z,35.50
2022-12-25T12:12:00.032Z,34.25
2022-12-25T12:14:44.228Z,35.75
2022-12-25T12:17:14.604Z,34.75
2022-12-25T12:19:43.427Z,33.50
2022-12-25T12:22:20.149Z,33.75
2022-12-25T12:24:54.587Z,33.25
2022-12-25T12:27:38.178Z,30.25
2022-12-25T12:30:23.326Z,31.00
2022-12-25T12:32:54.234Z,30.50
2022-12-25T12:35:27.732Z,26.50
2022-12-25T12:37:59.618Z,29.25
2022-12-25T12:40:35.434Z,35.25
2022-12-25T12:43:07.703Z,32.75
2022-12-25T12:45:38.990Z,30.00
2022-12-25T12:48:15.982Z,28.50
2022-12-25T12:50:44.826Z,30.00
2022-12-25T12:53:30.590Z,29.50
2022-12-25T12:56:10.859Z,31.00
2022-12-25T12:58:46.306Z,31.00
2022-12-25T13:01:28.066Z,32.25
2022-12-25T13:04:33.504Z,32.00
2022-12-25T13:07:14.262Z,30.00
2022-12-25T13:09:57.725Z,31.00
2022-12-25T13:12:26.729Z,30.00
2022-12-25T13:14:56.800Z,27.25
2022-12-25T13:17:28.565Z,25.25
2022-12-25T13:19:59.582Z,23.60
2022-12-25T13:22:33.148Z,23.20
2022-12-25T13:25:05.076Z,23.20
2022-12-25T13:27:35.075Z,6.00
2022-12-25T13:30:15.461Z,23.80
2022-12-25T13:32:45.928Z,23.75
2022-12-25T13:35:15.727Z,23.50
2022-12-25T13:37:45.312Z,24.00
2022-12-25T13:40:23.839Z,21.60
2022-12-25T13:42:57.802Z,20.60
2022-12-25T13:45:30.301Z,25.25
2022-12-25T13:48:00.111Z,24.75
2022-12-25T13:50:30.798Z,24.75
2022-12-25T13:53:11.227Z,25.25
2022-12-25T13:55:39.788Z,29.00
2022-12-25T13:58:16.672Z,31.25
2022-12-25T14:00:50.565Z,33.75
2022-12-25T14:03:23.204Z,25.75
2022-12-25T14:05:58.067Z,31.25
2022-12-25T14:08:29.007Z,32.75
2022-12-25T14:10:58.489Z,28.75
2022-12-25T14:13:29.965Z,30.25
2022-12-25T14:16:00.806Z,35.00
2022-12-25T14:18:31.220Z,37.25
2022-12-25T14:21:02.599Z,33.50
2022-12-25T14:23:41.411Z,30.00
2022-12-25T14:26:16.465Z,30.50
2022-12-25T14:28:48.988Z,31.00
2022-12-25T14:31:19.973Z,32.75
2022-12-25T14:33:50.512Z,33.50
2022-12-25T14:36:20.028Z,32.25
2022-12-25T14:38:58.813Z,32.75
2022-12-25T14:41:38.255Z,36.25
2022-12-25T14:44:31.492Z,34.00
2022-12-25T14:47:15.901Z,35.25
2022-12-25T14:49:44.879Z,35.75
2022-12-25T14:52:20.608Z,34.33
2022-12-25T14:54:52.292Z,36.25
2022-12-25T14:57:28.137Z,35.25
2022-12-25T15:00:03.773Z,36.00
2022-12-25T15:02:45.710Z,34.25
2022-12-25T15:05:26.716Z,35.50
2022-12-25T15:08:18.522Z,35.00
2022-12-25T15:11:04.103Z,36.50
2022-12-25T15:13:34.307Z,38.00
2022-12-25T15:16:07.612Z,35.50
2022-12-25T15:18:41.054Z,38.75
2022-12-25T15:21:17.748Z,40.75
2022-12-25T15:23:46.352Z,36.50
2022-12-25T15:26:16.019Z,37.00
2022-12-25T15:28:44.526Z,37.50
2022-12-25T15:31:21.192Z,36.00
2022-12-25T15:33:51.666Z,33.00
2022-12-25T15:36:20.820Z,37.00
2022-12-25T15:38:49.925Z,38.25
2022-12-25T15:41:35.582Z,40.00
2022-12-25T15:44:05.398Z,47.00
2022-12-25T15:46:35.067Z,47.50
2022-12-25T15:49:05.602Z,50.25
2022-12-25T15:51:34.548Z,48.50
2022-12-25T15:54:03.132Z,44.25
2022-12-25T15:56:38.015Z,49.75
2022-12-25T15:59:06.541Z,41.50
2022-12-25T16:01:35.494Z,51.75
2022-12-25T16:04:05.914Z,51.75
2022-12-25T16:06:34.784Z,52.25
2022-12-25T16:09:03.262Z,49.00
2022-12-25T16:11:32.183Z,49.00
2022-12-25T16:14:00.772Z,52.00
2022-12-25T16:16:29.601Z,49.75
2022-12-25T16:18:58.293Z,49.00
2022-12-25T16:21:33.417Z,47.00
2022-12-25T16:24:01.795Z,50.00
2022-12-25T16:26:33.235Z,45.25
2022-12-25T16:29:06.773Z,46.33
2022-12-25T16:31:36.146Z,40.33
2022-12-25T16:34:05.738Z,43.00
2022-12-25T16:36:36.796Z,41.33
2022-12-25T16:39:06.014Z,40.00
2022-12-25T16:41:35.884Z,40.75
2022-12-25T16:44:09.203Z,40.25
2022-12-25T16:46:38.699Z,40.33
2022-12-25T16:49:07.650Z,37.25
2022-12-25T16:51:37.855Z,38.00
2022-12-25T16:54:06.360Z,37.50
2022-12-25T16:56:36.763Z,36.00
2022-12-25T16:59:05.177Z,37.00
2022-12-25T17:01:34.288Z,35.75
2022-12-25T17:04:02.952Z,35.50
2022-12-25T17:06:32.108Z,35.75
2022-12-25T17:09:03.709Z,35.75
2022-12-25T17:11:32.997Z,33.00
2022-12-25T17:14:04.918Z,33.25
2022-12-25T17:16:35.689Z,37.25
2022-12-25T17:19:08.164Z,33.25
2022-12-25T17:21:38.285Z,35.25
2022-12-25T17:24:08.752Z,32.00
2022-12-25T17:26:38.147Z,32.75
2022-12-25T17:29:06.603Z,33.75
2022-12-25T17:31:35.917Z,38.25
2022-12-25T17:34:05.565Z,35.75
2022-12-25T17:36:35.857Z,33.50
2022-12-25T17:39:07.163Z,33.50
2022-12-25T17:41:37.389Z,30.75
2022-12-25T17:44:06.222Z,31.75
2022-12-25T17:46:34.976Z,33.25
2022-12-25T17:49:03.695Z,31.00
2022-12-25T17:51:32.950Z,32.00
2022-12-25T17:54:04.238Z,30.00
2022-12-25T17:56:34.378Z,32.00
2022-12-25T17:59:30.307Z,16.50
2022-12-25T18:01:59.319Z,34.75
2022-12-25T18:04:27.992Z,34.50
2022-12-25T18:06:57.020Z,33.50
2022-12-25T18:09:25.758Z,0.00
2022-12-25T18:11:54.613Z,30.50
2022-12-25T18:14:23.086Z,32.75
2022-12-25T18:16:54.608Z,33.25
2022-12-25T18:19:23.161Z,31.25
2022-12-25T18:21:52.250Z,31.00
2022-12-25T18:24:20.969Z,31.00
2022-12-25T18:26:50.421Z,31.25
2022-12-25T18:29:19.139Z,31.25
2022-12-25T18:31:48.438Z,31.75
2022-12-25T18:34:18.443Z,31.25
2022-12-25T18:36:47.502Z,28.50
2022-12-25T18:39:16.093Z,30.25
2022-12-25T18:41:59.211Z,30.00
2022-12-25T18:44:27.705Z,26.75
2022-12-25T18:46:56.449Z,28.25
2022-12-25T18:49:26.717Z,26.25
2022-12-25T18:51:55.529Z,21.25
2022-12-25T18:54:44.292Z,25.50
2022-12-25T18:57:13.180Z,23.00
2022-12-25T18:59:42.650Z,21.80
2022-12-25T19:02:12.744Z,23.80
2022-12-25T19:04:43.574Z,23.00
2022-12-25T19:07:13.157Z,25.75
2022-12-25T19:09:41.708Z,26.75
2022-12-25T19:12:10.432Z,25.25
2022-12-25T19:14:47.477Z,26.00
2022-12-25T19:17:17.343Z,25.00
2022-12-25T19:19:47.684Z,25.00
2022-12-25T19:22:16.780Z,23.50
2022-12-25T19:24:45.468Z,21.60
2022-12-25T19:27:14.733Z,23.25
2022-12-25T19:29:43.192Z,24.25
2022-12-25T19:32:11.922Z,23.25
2022-12-25T19:34:40.450Z,23.25
2022-12-25T19:37:10.606Z,26.00
2022-12-25T19:39:39.899Z,27.50
2022-12-25T19:42:08.692Z,22.25
2022-12-25T19:44:37.524Z,23.00
2022-12-25T19:47:06.577Z,18.40
2022-12-25T19:49:35.129Z,21.00
2022-12-25T19:52:05.075Z,21.60
2022-12-25T19:54:35.482Z,20.00
2022-12-25T19:57:04.669Z,21.00
2022-12-25T19:59:33.689Z,19.00
2022-12-25T20:02:02.638Z,17.00
2022-12-25T20:04:31.303Z,17.40
2022-12-25T20:07:00.047Z,18.80
2022-12-25T20:09:28.707Z,21.80
2022-12-25T20:11:58.866Z,17.60
2022-12-25T20:14:27.380Z,16.60
2022-12-25T20:16:56.173Z,18.00
2022-12-25T20:19:24.740Z,18.00
2022-12-25T20:21:54.741Z,17.00
2022-12-25T20:24:24.698Z,17.00
2022-12-25T20:26:58.798Z,17.00
2022-12-25T20:29:29.007Z,17.60
2022-12-25T20:31:57.869Z,15.40
2022-12-25T20:34:26.324Z,16.20
2022-12-25T20:36:55.381Z,17.00
2022-12-25T20:39:23.893Z,17.80
2022-12-25T20:41:53.765Z,19.00
2022-12-25T20:44:22.227Z,16.60
2022-12-25T20:46:52.324Z,17.40
2022-12-25T20:49:20.977Z,19.00
2022-12-25T20:51:50.368Z,20.20
2022-12-25T20:54:18.886Z,24.40
2022-12-25T20:56:49.710Z,22.40
2022-12-25T20:59:18.281Z,20.20
2022-12-25T21:01:47.973Z,19.00
2022-12-25T21:04:17.966Z,22.80
2022-12-25T21:06:46.908Z,19.80
2022-12-25T21:09:15.339Z,22.80
2022-12-25T21:11:44.406Z,24.75
2022-12-25T21:14:13.176Z,23.40
2022-12-25T21:16:43.866Z,24.25
2022-12-25T21:19:12.466Z,25.00
2022-12-25T21:21:43.675Z,26.00
2022-12-25T21:24:12.376Z,30.00
2022-12-25T21:26:47.600Z,30.00
2022-12-25T21:29:17.883Z,27.75
2022-12-25T21:32:03.999Z,26.25
2022-12-25T21:34:32.462Z,28.50
2022-12-25T21:37:03.484Z,36.25
2022-12-25T21:39:32.066Z,32.00
2022-12-25T21:42:00.901Z,25.00
2022-12-25T21:44:29.384Z,25.50
2022-12-25T21:46:58.229Z,30.00
2022-12-25T21:49:43.903Z,24.50
2022-12-25T21:52:14.130Z,26.00
2022-12-25T21:54:42.743Z,28.00
2022-12-25T21:57:11.481Z,27.50
2022-12-25T21:59:40.170Z,27.25
2022-12-25T22:02:11.611Z,29.00
2022-12-25T22:04:40.659Z,26.75
2022-12-25T22:07:22.897Z,23.75
2022-12-25T22:09:52.810Z,25.75
2022-12-25T22:12:40.311Z,26.25
2022-12-25T22:15:11.174Z,26.75
2022-12-25T22:17:58.854Z,30.25
2022-12-25T22:20:30.144Z,29.25
2022-12-25T22:23:00.673Z,23.75
2022-12-25T22:25:29.375Z,27.25
2022-12-25T22:27:58.895Z,25.50
2022-12-25T22:30:30.615Z,23.20
2022-12-25T22:33:02.851Z,27.50
2022-12-25T22:35:31.333Z,30.00
2022-12-25T22:38:01.626Z,27.50
2022-12-25T22:40:30.115Z,24.40
2022-12-25T22:42:59.020Z,28.75
2022-12-25T22:45:27.573Z,29.25
2022-12-25T22:47:56.414Z,20.80
2022-12-25T22:50:24.830Z,23.00
2022-12-25T22:52:54.070Z,24.80
2022-12-25T22:55:23.981Z,23.00
2022-12-25T22:57:53.000Z,25.00
2022-12-25T23:00:21.738Z,24.00
2022-12-25T23:02:50.773Z,25.75
2022-12-25T23:05:19.425Z,22.20
2022-12-25T23:07:48.417Z,25.00
2022-12-25T23:10:17.311Z,23.00
2022-12-25T23:13:10.313Z,20.80
2022-12-25T23:15:39.605Z,23.00
2022-12-25T23:18:25.932Z,23.20
2022-12-25T23:21:16.799Z,22.60
2022-12-25T23:24:03.068Z,21.20
2022-12-25T23:26:31.693Z,17.40
2022-12-25T23:29:18.598Z,18.20
2022-12-25T23:31:53.568Z,17.20
2022-12-25T23:34:23.050Z,16.60
2022-12-25T23:36:51.442Z,15.20
2022-12-25T23:39:20.398Z,16.20
2022-12-25T23:41:49.101Z,14.00
2022-12-25T23:44:19.447Z,15.80
2022-12-25T23:46:53.235Z,16.40
2022-12-25T23:49:22.956Z,14.20
2022-12-25T23:51:51.594Z,14.00
2022-12-25T23:54:22.877Z,15.80
2022-12-25T23:56:52.436Z,13.60
2022-12-25T23:59:22.593Z,16.60
